createdAt,value
2023-05-08T00:00:44.347Z,12.95
2023-05-08T00:01:40.936Z,13.01
2023-05-08T00:02:37.687Z,13.24
2023-05-08T00:03:34.548Z,13.28
2023-05-08T00:04:31.342Z,13.12
2023-05-08T00:05:28.059Z,12.74
2023-05-08T00:06:24.622Z,12.69
2023-05-08T00:07:21.190Z,12.70
2023-05-08T00:08:17.855Z,12.31
2023-05-08T00:09:14.407Z,12.55
2023-05-08T00:10:11.947Z,12.63
2023-05-08T00:11:08.661Z,12.64
2023-05-08T00:12:05.567Z,12.62
2023-05-08T00:13:02.369Z,12.41
2023-05-08T00:13:59.149Z,12.31
2023-05-08T00:14:56.453Z,12.49
2023-05-08T00:15:53.070Z,12.36
2023-05-08T00:16:50.372Z,12.49
2023-05-08T00:17:47.105Z,12.75
2023-05-08T00:18:43.919Z,12.85
2023-05-08T00:19:40.537Z,12.60
2023-05-08T00:20:37.967Z,12.70
2023-05-08T00:21:34.736Z,12.53
2023-05-08T00:22:31.300Z,12.44
2023-05-08T00:23:27.883Z,12.37
2023-05-08T00:24:24.459Z,11.91
2023-05-08T00:25:21.084Z,12.08
2023-05-08T00:26:17.743Z,12.32
2023-05-08T00:27:14.484Z,12.02
2023-05-08T00:28:11.047Z,12.17
2023-05-08T00:29:07.688Z,12.52
2023-05-08T00:30:04.780Z,12.16
2023-05-08T00:31:04.330Z,12.37
2023-05-08T00:32:01.060Z,12.54
2023-05-08T00:32:57.859Z,12.60
2023-05-08T00:33:54.466Z,12.44
2023-05-08T00:34:51.434Z,12.01
2023-05-08T00:35:48.078Z,12.17
2023-05-08T00:36:44.723Z,12.29
2023-05-08T00:37:42.062Z,12.43
2023-05-08T00:38:38.614Z,12.00
2023-05-08T00:39:35.140Z,12.08
2023-05-08T00:40:31.770Z,12.63
2023-05-08T00:41:28.434Z,12.69
2023-05-08T00:42:25.169Z,13.03
2023-05-08T00:43:25.812Z,13.07
2023-05-08T00:44:22.430Z,12.35
2023-05-08T00:45:19.161Z,12.61
2023-05-08T00:46:16.395Z,12.35
2023-05-08T00:47:13.142Z,12.51
2023-05-08T00:48:09.791Z,12.38
2023-05-08T00:49:07.397Z,11.89
2023-05-08T00:50:05.453Z,11.96
2023-05-08T00:51:06.455Z,11.96
2023-05-08T00:52:08.728Z,12.22
2023-05-08T00:53:05.588Z,12.17
2023-05-08T00:54:02.372Z,12.49
2023-05-08T00:55:00.808Z,12.58
2023-05-08T00:56:00.238Z,12.38
2023-05-08T00:56:56.998Z,12.44
2023-05-08T00:57:53.767Z,12.37
2023-05-08T00:58:51.248Z,12.10
2023-05-08T00:59:49.520Z,11.41
2023-05-08T01:00:50.896Z,11.53
2023-05-08T01:01:48.991Z,11.68
2023-05-08T01:02:46.802Z,11.90
2023-05-08T01:03:45.034Z,11.99
2023-05-08T01:04:44.369Z,12.21
2023-05-08T01:05:41.774Z,11.89
2023-05-08T01:06:38.450Z,11.86
2023-05-08T01:07:35.118Z,11.94
2023-05-08T01:08:32.089Z,11.95
2023-05-08T01:09:29.052Z,11.48
2023-05-08T01:10:38.080Z,11.58
2023-05-08T01:11:41.833Z,11.56
2023-05-08T01:13:04.997Z,11.79
2023-05-08T01:14:14.495Z,11.75
2023-05-08T01:15:36.554Z,11.57
2023-05-08T01:16:58.634Z,11.64
2023-05-08T01:18:10.154Z,11.63
2023-05-08T01:19:16.069Z,11.44
2023-05-08T01:20:24.833Z,11.53
2023-05-08T01:21:44.163Z,11.58
2023-05-08T01:22:52.565Z,11.61
2023-05-08T01:24:17.180Z,11.29
2023-05-08T01:25:47.604Z,11.76
2023-05-08T01:27:03.008Z,11.68
2023-05-08T01:28:13.973Z,11.87
2023-05-08T01:29:45.963Z,12.03
2023-05-08T01:31:19.874Z,11.93
2023-05-08T01:32:25.086Z,11.49
2023-05-08T01:33:41.662Z,11.47
2023-05-08T01:35:14.382Z,11.35
2023-05-08T01:36:28.547Z,11.19
2023-05-08T01:37:35.763Z,11.29
2023-05-08T01:39:07.756Z,11.07
2023-05-08T01:40:18.147Z,11.20
2023-05-08T01:41:18.509Z,11.38
2023-05-08T01:42:53.502Z,11.50
2023-05-08T01:44:19.929Z,11.31
2023-05-08T01:45:25.800Z,11.44
2023-05-08T01:46:28.302Z,11.37
2023-05-08T01:47:27.083Z,11.39
2023-05-08T01:48:35.496Z,11.66
2023-05-08T01:49:37.411Z,11.49
2023-05-08T01:50:40.805Z,11.36
2023-05-08T01:51:46.676Z,11.33
2023-05-08T01:52:50.609Z,11.21
2023-05-08T01:53:54.359Z,11.16
2023-05-08T01:55:00.118Z,11.26
2023-05-08T01:56:00.498Z,11.50
2023-05-08T01:57:00.218Z,11.19
2023-05-08T01:57:58.652Z,11.17
2023-05-08T01:58:58.120Z,11.11
2023-05-08T01:59:57.449Z,10.90
2023-05-08T02:00:55.209Z,10.95
2023-05-08T02:01:57.155Z,11.13
2023-05-08T02:02:55.816Z,11.06
2023-05-08T02:03:53.921Z,10.95
2023-05-08T02:04:52.515Z,11.23
2023-05-08T02:05:50.551Z,11.05
2023-05-08T02:06:47.285Z,11.14
2023-05-08T02:07:45.794Z,10.95
2023-05-08T02:08:44.486Z,10.86
2023-05-08T02:09:44.121Z,10.89
2023-05-08T02:10:42.464Z,10.93
2023-05-08T02:11:41.366Z,10.76
2023-05-08T02:12:40.055Z,10.77
2023-05-08T02:13:38.977Z,10.86
2023-05-08T02:14:37.496Z,10.91
2023-05-08T02:15:36.712Z,10.83
2023-05-08T02:16:34.371Z,11.09
2023-05-08T02:17:33.695Z,10.86
2023-05-08T02:18:32.334Z,10.93
2023-05-08T02:19:30.484Z,10.95
2023-05-08T02:20:28.989Z,10.76
2023-05-08T02:21:26.613Z,10.93
2023-05-08T02:22:24.486Z,11.21
2023-05-08T02:23:23.532Z,11.23
2023-05-08T02:24:21.405Z,11.27
2023-05-08T02:25:19.389Z,10.75
2023-05-08T02:26:17.144Z,10.92
2023-05-08T02:27:14.769Z,10.57
2023-05-08T02:28:12.172Z,10.42
2023-05-08T02:29:09.512Z,10.51
2023-05-08T02:30:08.471Z,10.65
2023-05-08T02:31:07.081Z,11.27
2023-05-08T02:32:04.429Z,11.30
2023-05-08T02:33:01.471Z,11.31
2023-05-08T02:33:59.870Z,11.14
2023-05-08T02:35:03.262Z,10.54
2023-05-08T02:36:02.906Z,10.48
2023-05-08T02:37:00.464Z,10.67
2023-05-08T02:37:58.669Z,10.94
2023-05-08T02:38:58.336Z,10.80
2023-05-08T02:39:58.567Z,10.72
2023-05-08T02:41:01.060Z,10.65
2023-05-08T02:41:57.704Z,10.59
2023-05-08T02:42:54.976Z,10.46
2023-05-08T02:43:52.884Z,10.46
2023-05-08T02:44:49.521Z,10.40
2023-05-08T02:45:50.237Z,10.29
2023-05-08T02:47:00.838Z,10.29
2023-05-08T02:48:10.978Z,10.24
2023-05-08T02:49:16.978Z,9.58
2023-05-08T02:50:24.758Z,10.30
2023-05-08T02:51:44.412Z,10.35
2023-05-08T02:52:47.421Z,10.46
2023-05-08T02:53:51.865Z,10.44
2023-05-08T02:54:51.482Z,10.40
2023-05-08T02:55:55.103Z,10.16
2023-05-08T02:57:09.186Z,10.36
2023-05-08T02:58:29.834Z,9.96
2023-05-08T02:59:37.015Z,10.47
2023-05-08T03:00:42.427Z,10.44
2023-05-08T03:02:08.780Z,10.42
2023-05-08T03:03:13.690Z,10.33
2023-05-08T03:04:12.397Z,10.35
2023-05-08T03:05:19.034Z,10.32
2023-05-08T03:06:21.683Z,10.21
2023-05-08T03:07:23.167Z,10.34
2023-05-08T03:08:26.059Z,10.35
2023-05-08T03:09:26.869Z,10.47
2023-05-08T03:10:29.823Z,10.59
2023-05-08T03:11:32.123Z,10.60
2023-05-08T03:12:32.685Z,10.62
2023-05-08T03:13:32.451Z,10.12
2023-05-08T03:14:31.974Z,10.54
2023-05-08T03:15:36.592Z,10.66
2023-05-08T03:16:36.722Z,10.70
2023-05-08T03:17:35.461Z,10.79
2023-05-08T03:18:50.240Z,10.51
2023-05-08T03:19:49.887Z,10.46
2023-05-08T03:20:54.540Z,10.44
2023-05-08T03:21:53.287Z,10.44
2023-05-08T03:22:53.349Z,10.54
2023-05-08T03:23:52.500Z,10.49
2023-05-08T03:24:50.812Z,10.41
2023-05-08T03:25:47.838Z,10.59
2023-05-08T03:26:45.461Z,10.30
2023-05-08T03:27:43.807Z,10.29
2023-05-08T03:28:40.660Z,10.53
2023-05-08T03:29:40.037Z,10.21
2023-05-08T03:30:37.990Z,10.43
2023-05-08T03:31:36.354Z,10.68
2023-05-08T03:32:34.906Z,10.58
2023-05-08T03:33:33.251Z,10.34
2023-05-08T03:34:31.285Z,10.58
2023-05-08T03:35:28.773Z,9.81
2023-05-08T03:36:27.345Z,10.44
2023-05-08T03:37:24.276Z,10.62
2023-05-08T03:38:22.263Z,10.65
2023-05-08T03:39:19.017Z,10.56
2023-05-08T03:40:15.768Z,10.58
2023-05-08T03:41:12.897Z,11.00
2023-05-08T03:42:09.921Z,11.31
2023-05-08T03:43:11.394Z,11.41
2023-05-08T03:44:08.558Z,11.33
2023-05-08T03:45:07.096Z,11.07
2023-05-08T03:46:07.217Z,11.08
2023-05-08T03:47:04.925Z,10.83
2023-05-08T03:48:02.130Z,10.63
2023-05-08T03:49:03.873Z,10.63
2023-05-08T03:50:00.901Z,10.60
2023-05-08T03:50:58.745Z,10.59
2023-05-08T03:51:56.814Z,10.69
2023-05-08T03:52:53.746Z,10.67
2023-05-08T03:53:50.374Z,10.84
2023-05-08T03:54:47.257Z,10.94
2023-05-08T03:55:43.896Z,11.20
2023-05-08T03:56:40.454Z,11.18
2023-05-08T03:57:53.494Z,11.17
2023-05-08T03:59:33.681Z,11.33
2023-05-08T04:00:49.091Z,11.46
2023-05-08T04:01:59.076Z,11.48
2023-05-08T04:03:04.338Z,11.43
2023-05-08T04:04:13.314Z,11.35
2023-05-08T04:05:31.873Z,11.38
2023-05-08T04:06:49.922Z,11.88
2023-05-08T04:07:53.937Z,12.07
2023-05-08T04:09:28.941Z,11.95
2023-05-08T04:10:38.331Z,12.29
2023-05-08T04:11:44.648Z,12.27
2023-05-08T04:13:02.695Z,12.40
2023-05-08T04:14:04.550Z,12.26
2023-05-08T04:15:22.648Z,12.08
2023-05-08T04:16:25.457Z,12.12
2023-05-08T04:17:45.867Z,12.11
2023-05-08T04:18:47.084Z,12.24
2023-05-08T04:19:47.071Z,12.42
2023-05-08T04:20:47.412Z,12.28
2023-05-08T04:21:45.068Z,12.22
2023-05-08T04:22:43.405Z,12.29
2023-05-08T04:23:42.599Z,12.37
2023-05-08T04:24:45.950Z,12.14
2023-05-08T04:25:43.780Z,12.28
2023-05-08T04:26:41.772Z,12.14
2023-05-08T04:27:38.916Z,12.38
2023-05-08T04:28:35.734Z,12.41
2023-05-08T04:29:33.429Z,12.52
2023-05-08T04:30:30.363Z,12.38
2023-05-08T04:31:28.075Z,12.57
2023-05-08T04:32:25.852Z,12.64
2023-05-08T04:33:22.494Z,12.60
2023-05-08T04:34:19.425Z,12.60
2023-05-08T04:35:16.150Z,12.67
2023-05-08T04:36:14.241Z,12.66
2023-05-08T04:37:25.898Z,12.70
2023-05-08T04:38:22.515Z,12.86
2023-05-08T04:39:20.049Z,12.93
2023-05-08T04:40:16.764Z,12.89
2023-05-08T04:41:13.365Z,12.66
2023-05-08T04:42:10.041Z,12.60
2023-05-08T04:43:06.673Z,12.60
2023-05-08T04:44:04.584Z,12.56
2023-05-08T04:45:01.230Z,12.54
2023-05-08T04:45:57.887Z,12.66
2023-05-08T04:46:54.489Z,12.48
2023-05-08T04:47:51.152Z,12.52
2023-05-08T04:48:47.793Z,12.60
2023-05-08T04:49:44.434Z,12.57
2023-05-08T04:50:41.420Z,12.69
2023-05-08T04:51:38.014Z,12.61
2023-05-08T04:52:34.866Z,12.80
2023-05-08T04:53:35.182Z,12.74
2023-05-08T04:54:31.804Z,12.80
2023-05-08T04:55:28.462Z,12.40
2023-05-08T04:56:25.191Z,12.78
2023-05-08T04:57:21.788Z,12.87
2023-05-08T04:58:18.427Z,13.26
2023-05-08T04:59:16.184Z,13.38
2023-05-08T05:00:13.543Z,13.20
2023-05-08T05:01:10.232Z,13.45
2023-05-08T05:02:08.417Z,13.38
2023-05-08T05:03:05.561Z,13.63
2023-05-08T05:04:02.321Z,13.73
2023-05-08T05:05:01.246Z,13.50
2023-05-08T05:05:59.440Z,13.19
2023-05-08T05:06:56.137Z,13.36
2023-05-08T05:07:52.789Z,13.44
2023-05-08T05:08:49.388Z,13.43
2023-05-08T05:09:46.406Z,13.60
2023-05-08T05:10:43.042Z,13.65
2023-05-08T05:11:39.641Z,13.56
2023-05-08T05:12:36.306Z,13.35
2023-05-08T05:13:32.859Z,13.60
2023-05-08T05:14:29.507Z,13.54
2023-05-08T05:15:26.040Z,13.53
2023-05-08T05:16:22.736Z,13.47
2023-05-08T05:17:19.364Z,13.59
2023-05-08T05:18:15.997Z,13.73
2023-05-08T05:19:12.856Z,13.72
2023-05-08T05:20:10.344Z,13.83
2023-05-08T05:21:06.891Z,13.95
2023-05-08T05:22:03.598Z,13.95
2023-05-08T05:23:00.213Z,13.93
2023-05-08T05:23:56.802Z,13.59
2023-05-08T05:24:53.340Z,14.15
2023-05-08T05:25:49.914Z,14.06
2023-05-08T05:26:46.559Z,14.00
2023-05-08T05:27:43.102Z,14.40
2023-05-08T05:28:39.718Z,14.79
2023-05-08T05:29:36.490Z,14.97
2023-05-08T05:30:33.763Z,15.01
2023-05-08T05:31:30.477Z,15.41
2023-05-08T05:32:27.074Z,15.07
2023-05-08T05:33:23.695Z,15.11
2023-05-08T05:34:20.258Z,14.94
2023-05-08T05:35:16.910Z,15.07
2023-05-08T05:36:13.640Z,15.15
2023-05-08T05:37:10.307Z,15.09
2023-05-08T05:38:07.025Z,14.98
2023-05-08T05:39:03.756Z,14.59
2023-05-08T05:40:00.404Z,14.65
2023-05-08T05:40:56.966Z,14.63
2023-05-08T05:41:53.594Z,14.47
2023-05-08T05:42:53.432Z,14.46
2023-05-08T05:43:50.021Z,14.74
2023-05-08T05:44:46.670Z,14.66
2023-05-08T05:45:43.348Z,14.72
2023-05-08T05:46:41.465Z,14.63
2023-05-08T05:47:44.910Z,14.85
2023-05-08T05:48:41.500Z,14.79
2023-05-08T05:49:39.704Z,14.73
2023-05-08T05:50:37.950Z,14.83
2023-05-08T05:51:34.549Z,15.00
2023-05-08T05:52:31.682Z,15.03
2023-05-08T05:53:28.558Z,14.79
2023-05-08T05:54:25.177Z,14.70
2023-05-08T05:55:22.289Z,14.93
2023-05-08T05:56:18.905Z,14.96
2023-05-08T05:57:15.586Z,14.87
2023-05-08T05:58:12.194Z,14.84
2023-05-08T05:59:08.872Z,14.79
2023-05-08T06:00:07.749Z,14.69
2023-05-08T06:01:04.577Z,14.74
2023-05-08T06:02:01.196Z,14.76
2023-05-08T06:02:58.020Z,15.00
2023-05-08T06:03:55.401Z,14.86
2023-05-08T06:04:52.613Z,14.61
2023-05-08T06:05:49.230Z,15.39
2023-05-08T06:06:47.340Z,15.68
2023-05-08T06:07:43.948Z,15.78
2023-05-08T06:08:40.551Z,15.48
2023-05-08T06:09:37.060Z,15.48
2023-05-08T06:10:33.618Z,15.50
2023-05-08T06:11:30.674Z,15.23
2023-05-08T06:12:28.393Z,14.88
2023-05-08T06:13:25.124Z,15.17
2023-05-08T06:14:21.999Z,15.21
2023-05-08T06:15:18.759Z,15.48
2023-05-08T06:16:15.536Z,15.39
2023-05-08T06:17:12.281Z,15.56
2023-05-08T06:18:08.999Z,15.20
2023-05-08T06:19:05.865Z,14.95
2023-05-08T06:20:03.493Z,14.87
2023-05-08T06:21:00.844Z,15.03
2023-05-08T06:21:57.411Z,15.61
2023-05-08T06:22:54.135Z,16.16
2023-05-08T06:23:50.680Z,16.41
2023-05-08T06:24:47.279Z,16.09
2023-05-08T06:25:43.824Z,16.24
2023-05-08T06:26:40.570Z,15.92
2023-05-08T06:27:37.232Z,15.80
2023-05-08T06:28:33.956Z,15.73
2023-05-08T06:29:30.530Z,15.89
2023-05-08T06:30:27.199Z,16.20
2023-05-08T06:31:23.983Z,16.01
2023-05-08T06:32:21.106Z,16.15
2023-05-08T06:33:18.569Z,16.19
2023-05-08T06:34:15.159Z,16.16
2023-05-08T06:35:13.423Z,16.16
2023-05-08T06:36:10.627Z,16.10
2023-05-08T06:37:07.373Z,16.21
2023-05-08T06:38:03.948Z,16.47
2023-05-08T06:39:00.473Z,17.17
2023-05-08T06:40:10.293Z,16.54
2023-05-08T06:41:09.244Z,16.76
2023-05-08T06:42:08.441Z,16.88
2023-05-08T06:43:05.897Z,16.62
2023-05-08T06:44:02.701Z,16.51
2023-05-08T06:44:59.317Z,16.69
2023-05-08T06:45:56.128Z,16.61
2023-05-08T06:46:52.862Z,16.55
2023-05-08T06:47:49.520Z,16.16
2023-05-08T06:48:47.098Z,16.41
2023-05-08T06:49:43.695Z,16.79
2023-05-08T06:50:41.051Z,16.74
2023-05-08T06:51:38.381Z,16.40
2023-05-08T06:52:35.042Z,16.43
2023-05-08T06:53:31.578Z,16.40
2023-05-08T06:54:28.230Z,16.55
2023-05-08T06:55:24.863Z,16.46
2023-05-08T06:56:22.759Z,16.25
2023-05-08T06:57:19.410Z,16.51
2023-05-08T06:58:16.079Z,16.62
2023-05-08T06:59:12.888Z,16.62
2023-05-08T07:00:10.211Z,16.81
2023-05-08T07:01:06.822Z,17.13
2023-05-08T07:02:03.497Z,17.59
2023-05-08T07:03:00.202Z,17.65
2023-05-08T07:03:56.861Z,17.41
2023-05-08T07:04:53.555Z,17.67
2023-05-08T07:05:50.123Z,17.63
2023-05-08T07:06:46.732Z,17.62
2023-05-08T07:07:43.438Z,17.72
2023-05-08T07:08:39.990Z,17.69
2023-05-08T07:09:36.561Z,17.42
2023-05-08T07:10:33.407Z,17.22
2023-05-08T07:11:29.956Z,17.10
2023-05-08T07:12:27.073Z,17.13
2023-05-08T07:13:23.733Z,17.32
2023-05-08T07:14:20.447Z,17.24
2023-05-08T07:15:25.596Z,17.18
2023-05-08T07:16:22.948Z,17.47
2023-05-08T07:17:19.544Z,17.48
2023-05-08T07:18:16.232Z,17.67
2023-05-08T07:19:12.852Z,17.81
2023-05-08T07:20:09.749Z,18.14
2023-05-08T07:21:06.364Z,18.13
2023-05-08T07:22:03.395Z,17.96
2023-05-08T07:23:00.020Z,17.97
2023-05-08T07:23:56.886Z,17.92
2023-05-08T07:24:53.426Z,17.92
2023-05-08T07:25:49.981Z,17.94
2023-05-08T07:26:46.585Z,17.91
2023-05-08T07:27:43.246Z,17.95
2023-05-08T07:28:39.877Z,17.56
2023-05-08T07:29:36.429Z,17.75
2023-05-08T07:30:33.829Z,17.97
2023-05-08T07:31:30.966Z,17.97
2023-05-08T07:32:27.616Z,17.95
2023-05-08T07:33:24.954Z,18.14
2023-05-08T07:34:21.608Z,18.19
2023-05-08T07:35:18.284Z,18.30
2023-05-08T07:36:14.946Z,18.65
2023-05-08T07:37:11.817Z,19.05
2023-05-08T07:38:08.592Z,18.83
2023-05-08T07:39:05.394Z,18.64
2023-05-08T07:40:02.001Z,18.88
2023-05-08T07:40:59.833Z,18.86
2023-05-08T07:41:56.576Z,18.87
2023-05-08T07:42:53.282Z,18.90
2023-05-08T07:43:50.017Z,19.39
2023-05-08T07:44:54.463Z,19.91
2023-05-08T07:45:52.098Z,19.55
2023-05-08T07:46:48.970Z,19.54
2023-05-08T07:47:50.669Z,19.79
2023-05-08T07:48:47.544Z,18.14
2023-05-08T07:49:44.203Z,17.99
2023-05-08T07:50:40.876Z,18.96
2023-05-08T07:51:37.566Z,18.98
2023-05-08T07:52:34.295Z,19.51
2023-05-08T07:53:30.848Z,19.34
2023-05-08T07:54:27.462Z,18.51
2023-05-08T07:55:24.154Z,19.01
2023-05-08T07:56:23.029Z,19.19
2023-05-08T07:57:19.633Z,18.89
2023-05-08T07:58:16.214Z,19.02
2023-05-08T07:59:12.804Z,19.15
2023-05-08T08:00:12.159Z,19.09
2023-05-08T08:01:08.775Z,18.95
2023-05-08T08:02:05.645Z,19.09
2023-05-08T08:03:02.571Z,18.96
2023-05-08T08:03:59.429Z,19.21
2023-05-08T08:04:56.346Z,18.91
2023-05-08T08:05:52.864Z,18.97
2023-05-08T08:06:49.437Z,18.59
2023-05-08T08:07:47.456Z,17.86
2023-05-08T08:08:44.117Z,18.46
2023-05-08T08:09:40.702Z,18.72
2023-05-08T08:10:37.311Z,18.66
2023-05-08T08:11:34.154Z,18.48
2023-05-08T08:12:32.038Z,18.44
2023-05-08T08:13:28.953Z,18.49
2023-05-08T08:14:25.648Z,18.16
2023-05-08T08:15:22.252Z,18.48
2023-05-08T08:16:18.844Z,18.91
2023-05-08T08:17:15.681Z,18.22
2023-05-08T08:18:13.073Z,18.65
2023-05-08T08:19:10.725Z,18.68
2023-05-08T08:20:08.117Z,18.35
2023-05-08T08:21:06.713Z,18.64
2023-05-08T08:22:03.306Z,18.61
2023-05-08T08:23:00.239Z,19.10
2023-05-08T08:23:57.400Z,19.46
2023-05-08T08:24:56.906Z,18.90
2023-05-08T08:25:53.611Z,19.11
2023-05-08T08:26:50.155Z,18.97
2023-05-08T08:27:46.730Z,18.85
2023-05-08T08:28:43.818Z,18.88
2023-05-08T08:29:40.656Z,18.80
2023-05-08T08:30:37.264Z,19.22
2023-05-08T08:31:34.113Z,19.20
2023-05-08T08:32:30.848Z,19.23
2023-05-08T08:33:29.142Z,19.69
2023-05-08T08:34:25.794Z,19.65
2023-05-08T08:35:29.169Z,19.88
2023-05-08T08:36:25.763Z,19.32
2023-05-08T08:37:23.528Z,19.07
2023-05-08T08:38:20.130Z,19.22
2023-05-08T08:39:17.013Z,19.61
2023-05-08T08:40:13.872Z,19.32
2023-05-08T08:41:13.822Z,19.19
2023-05-08T08:42:10.502Z,19.26
2023-05-08T08:43:07.611Z,18.99
2023-05-08T08:44:04.391Z,19.41
2023-05-08T08:45:01.712Z,19.64
2023-05-08T08:45:59.578Z,19.80
2023-05-08T08:46:58.558Z,20.02
2023-05-08T08:48:00.455Z,19.46
2023-05-08T08:48:58.728Z,19.66
2023-05-08T08:49:56.662Z,19.86
2023-05-08T08:50:58.036Z,19.64
2023-05-08T08:52:07.055Z,19.01
2023-05-08T08:53:12.735Z,18.50
2023-05-08T08:54:12.662Z,18.71
2023-05-08T08:55:12.991Z,18.87
2023-05-08T08:56:11.676Z,18.97
2023-05-08T08:57:09.399Z,18.88
2023-05-08T08:58:24.027Z,18.72
2023-05-08T08:59:21.468Z,18.26
2023-05-08T09:00:20.414Z,18.10
2023-05-08T09:01:19.603Z,18.48
2023-05-08T09:02:19.484Z,18.57
2023-05-08T09:03:16.760Z,18.40
2023-05-08T09:04:13.744Z,18.57
2023-05-08T09:05:11.561Z,18.57
2023-05-08T09:06:08.851Z,18.50
2023-05-08T09:07:08.655Z,18.53
2023-05-08T09:08:06.139Z,18.77
2023-05-08T09:09:03.073Z,18.93
2023-05-08T09:10:00.475Z,18.63
2023-05-08T09:10:57.406Z,19.11
2023-05-08T09:11:53.991Z,19.02
2023-05-08T09:12:50.722Z,18.80
2023-05-08T09:13:47.358Z,18.67
2023-05-08T09:14:44.243Z,19.00
2023-05-08T09:15:41.571Z,18.91
2023-05-08T09:16:38.325Z,19.06
2023-05-08T09:17:34.991Z,18.86
2023-05-08T09:18:31.654Z,18.79
2023-05-08T09:19:29.096Z,18.77
2023-05-08T09:20:26.787Z,18.92
2023-05-08T09:21:23.487Z,19.13
2023-05-08T09:22:20.346Z,19.19
2023-05-08T09:23:17.618Z,18.93
2023-05-08T09:24:14.318Z,18.99
2023-05-08T09:25:11.156Z,19.16
2023-05-08T09:26:09.288Z,19.12
2023-05-08T09:27:20.883Z,19.63
2023-05-08T09:28:25.173Z,19.89
2023-05-08T09:29:22.304Z,20.22
2023-05-08T09:30:19.069Z,20.28
2023-05-08T09:31:15.780Z,20.25
2023-05-08T09:32:18.752Z,20.14
2023-05-08T09:33:15.678Z,20.33
2023-05-08T09:34:27.095Z,20.10
2023-05-08T09:35:36.669Z,19.96
2023-05-08T09:36:34.694Z,19.90
2023-05-08T09:37:31.441Z,20.38
2023-05-08T09:38:38.424Z,20.45
2023-05-08T09:39:35.138Z,20.72
2023-05-08T09:40:31.815Z,20.60
2023-05-08T09:41:28.736Z,20.81
2023-05-08T09:42:37.914Z,20.60
2023-05-08T09:43:34.827Z,20.35
2023-05-08T09:44:53.316Z,20.23
2023-05-08T09:45:50.058Z,20.21
2023-05-08T09:46:49.671Z,19.84
2023-05-08T09:47:49.315Z,19.86
2023-05-08T09:48:46.088Z,20.04
2023-05-08T09:50:13.372Z,20.29
2023-05-08T09:51:11.061Z,20.50
2023-05-08T09:52:08.496Z,20.70
2023-05-08T09:53:05.158Z,20.62
2023-05-08T09:54:05.802Z,20.83
2023-05-08T09:55:08.053Z,20.53
2023-05-08T09:56:05.103Z,20.40
2023-05-08T09:57:12.040Z,20.18
2023-05-08T09:58:08.964Z,20.51
2023-05-08T09:59:23.362Z,20.48
2023-05-08T10:00:20.617Z,20.29
2023-05-08T10:01:32.361Z,20.49
2023-05-08T10:02:29.325Z,20.88
2023-05-08T10:03:46.503Z,20.79
2023-05-08T10:04:43.326Z,20.79
2023-05-08T10:05:40.493Z,20.50
2023-05-08T10:06:37.462Z,20.68
2023-05-08T10:07:38.552Z,20.98
2023-05-08T10:08:35.141Z,20.22
2023-05-08T10:09:42.537Z,19.69
2023-05-08T10:10:39.624Z,20.02
2023-05-08T10:11:36.749Z,20.44
2023-05-08T10:12:33.742Z,19.94
2023-05-08T10:13:30.407Z,20.16
2023-05-08T10:14:27.062Z,19.69
2023-05-08T10:15:25.893Z,20.32
2023-05-08T10:16:22.864Z,20.35
2023-05-08T10:17:41.911Z,20.24
2023-05-08T10:18:42.326Z,20.25
2023-05-08T10:19:46.346Z,20.62
2023-05-08T10:20:46.488Z,20.54
2023-05-08T10:21:48.035Z,20.85
2023-05-08T10:22:44.876Z,20.94
2023-05-08T10:23:49.236Z,20.85
2023-05-08T10:24:50.097Z,20.46
2023-05-08T10:25:48.797Z,20.31
2023-05-08T10:27:19.620Z,20.74
2023-05-08T10:28:43.554Z,21.17
2023-05-08T10:29:58.708Z,20.64
2023-05-08T10:31:00.353Z,20.25
2023-05-08T10:31:59.481Z,20.77
2023-05-08T10:32:59.343Z,21.26
2023-05-08T10:33:56.830Z,21.55
2023-05-08T10:34:58.864Z,21.56
2023-05-08T10:35:56.090Z,21.63
2023-05-08T10:36:54.198Z,21.37
2023-05-08T10:37:52.212Z,21.39
2023-05-08T10:38:50.320Z,21.89
2023-05-08T10:39:48.327Z,21.91
2023-05-08T10:40:45.199Z,21.47
2023-05-08T10:41:42.155Z,21.91
2023-05-08T10:42:40.047Z,22.07
2023-05-08T10:43:41.383Z,22.30
2023-05-08T10:44:38.796Z,21.83
2023-05-08T10:45:36.724Z,21.39
2023-05-08T10:46:54.877Z,21.17
2023-05-08T10:47:59.660Z,21.77
2023-05-08T10:49:15.315Z,21.74
2023-05-08T10:50:19.536Z,21.90
2023-05-08T10:51:35.549Z,21.52
2023-05-08T10:52:42.723Z,21.99
2023-05-08T10:53:59.413Z,22.38
2023-05-08T10:55:04.798Z,22.20
2023-05-08T10:56:01.826Z,21.84
2023-05-08T10:57:11.856Z,21.78
2023-05-08T10:58:28.525Z,22.11
2023-05-08T10:59:25.072Z,21.96
2023-05-08T11:00:23.521Z,21.98
2023-05-08T11:01:20.168Z,21.42
2023-05-08T11:02:26.038Z,21.31
2023-05-08T11:03:31.356Z,21.95
2023-05-08T11:04:28.733Z,21.81
2023-05-08T11:05:26.464Z,22.35
2023-05-08T11:06:42.793Z,21.91
2023-05-08T11:07:59.567Z,21.69
2023-05-08T11:08:57.277Z,21.30
2023-05-08T11:09:55.739Z,21.58
2023-05-08T11:11:06.261Z,20.45
2023-05-08T11:12:08.901Z,20.89
2023-05-08T11:13:07.443Z,21.79
2023-05-08T11:14:07.058Z,22.21
2023-05-08T11:15:06.741Z,22.71
2023-05-08T11:16:04.347Z,23.24
2023-05-08T11:17:01.135Z,23.37
2023-05-08T11:17:57.868Z,23.33
2023-05-08T11:19:17.182Z,23.44
2023-05-08T11:20:14.237Z,23.85
2023-05-08T11:21:19.887Z,23.79
2023-05-08T11:22:26.114Z,23.72
2023-05-08T11:23:22.946Z,23.70
2023-05-08T11:24:19.739Z,23.61
2023-05-08T11:25:16.733Z,23.29
2023-05-08T11:26:14.872Z,23.46
2023-05-08T11:27:11.508Z,23.47
2023-05-08T11:28:09.651Z,23.36
2023-05-08T11:29:16.793Z,22.68
2023-05-08T11:30:36.097Z,24.09
2023-05-08T11:31:51.973Z,23.20
2023-05-08T11:33:04.612Z,24.25
2023-05-08T11:34:01.483Z,23.93
2023-05-08T11:34:58.079Z,23.30
2023-05-08T11:35:56.002Z,24.17
2023-05-08T11:37:04.602Z,23.57
2023-05-08T11:38:24.323Z,22.99
2023-05-08T11:39:20.912Z,23.27
2023-05-08T11:40:45.547Z,23.69
2023-05-08T11:41:42.288Z,23.92
2023-05-08T11:42:38.929Z,24.26
2023-05-08T11:43:38.648Z,24.36
2023-05-08T11:44:35.745Z,24.28
2023-05-08T11:45:33.943Z,24.11
2023-05-08T11:46:41.449Z,24.15
2023-05-08T11:47:39.623Z,24.07
2023-05-08T11:48:36.457Z,24.23
2023-05-08T11:49:33.085Z,24.27
2023-05-08T11:50:29.656Z,24.05
2023-05-08T11:51:31.327Z,23.83
2023-05-08T11:52:28.590Z,24.53
2023-05-08T11:53:25.575Z,24.14
2023-05-08T11:54:23.072Z,24.00
2023-05-08T11:55:20.200Z,23.37
2023-05-08T11:56:16.750Z,23.73
2023-05-08T11:57:17.644Z,23.25
2023-05-08T11:58:15.797Z,23.48
2023-05-08T11:59:13.420Z,23.94
2023-05-08T12:00:11.948Z,24.19
2023-05-08T12:01:08.876Z,24.32
2023-05-08T12:02:08.944Z,24.79
2023-05-08T12:03:07.570Z,24.23
2023-05-08T12:04:13.664Z,24.83
2023-05-08T12:05:11.332Z,25.23
2023-05-08T12:06:08.640Z,24.95
2023-05-08T12:07:06.290Z,25.09
2023-05-08T12:08:04.340Z,24.83
2023-05-08T12:09:02.197Z,24.24
2023-05-08T12:10:01.350Z,23.90
2023-05-08T12:10:58.298Z,24.23
2023-05-08T12:11:58.166Z,23.36
2023-05-08T12:12:55.036Z,23.18
2023-05-08T12:13:53.317Z,22.95
2023-05-08T12:14:51.428Z,23.44
2023-05-08T12:15:53.588Z,22.61
2023-05-08T12:16:51.292Z,22.62
2023-05-08T12:17:48.121Z,22.43
2023-05-08T12:18:45.644Z,22.50
2023-05-08T12:19:42.283Z,22.96
2023-05-08T12:20:39.079Z,22.33
2023-05-08T12:21:36.333Z,21.44
2023-05-08T12:22:33.067Z,19.98
2023-05-08T12:23:30.205Z,20.29
2023-05-08T12:24:28.084Z,19.03
2023-05-08T12:25:25.704Z,19.40
2023-05-08T12:26:22.539Z,19.59
2023-05-08T12:27:19.516Z,18.63
2023-05-08T12:28:16.249Z,18.68
2023-05-08T12:29:12.861Z,18.48
2023-05-08T12:30:14.638Z,18.20
2023-05-08T12:31:12.502Z,17.49
2023-05-08T12:32:09.372Z,18.27
2023-05-08T12:33:07.129Z,18.32
2023-05-08T12:34:05.994Z,18.38
2023-05-08T12:35:03.091Z,18.26
2023-05-08T12:36:01.004Z,19.13
2023-05-08T12:37:04.708Z,19.32
2023-05-08T12:38:03.547Z,17.89
2023-05-08T12:39:13.608Z,18.69
2023-05-08T12:40:25.533Z,18.12
2023-05-08T12:41:26.325Z,19.40
2023-05-08T12:42:22.970Z,19.16
2023-05-08T12:43:19.590Z,19.33
2023-05-08T12:44:26.651Z,18.73
2023-05-08T12:45:28.442Z,17.94
2023-05-08T12:46:25.040Z,18.14
2023-05-08T12:47:21.775Z,18.24
2023-05-08T12:48:18.586Z,18.30
2023-05-08T12:49:23.500Z,18.38
2023-05-08T12:50:21.880Z,17.95
2023-05-08T12:51:18.554Z,18.43
2023-05-08T12:52:15.990Z,18.37
2023-05-08T12:53:18.247Z,17.46
2023-05-08T12:54:14.986Z,18.40